Terminal Aerodrome Forecast
Issued by NWS Springfield, MO

Home | Current Version | Previous Version | Text Only | Print | Product List | Glossary On
Versions: 1 2 3 4 5 6 7 8 9 10 11 12 13
000
FTUS43 KSGF 032024 AAA
TAFSGF
TAF AMD
KSGF 032024Z 0320/0418 26007KT P6SM FEW045 SCT200
     FM032300 20004KT P6SM SCT250
     FM041530 17003KT P6SM SCT200=

USA.gov is the U.S. government's official web portal to all federal, state and local government web resources and services.